Time;durP1;ratioP1;P1;durP2;ratioP2;P2;SDS_P1;SDS_P2;PMS_P1;PMS_P2;Temp;Humidity;BMP_temperature;BMP_pressure;BME280_temperature;BME280_humidity;BME280_pressure;Samples;Min_cycle;Max_cycle;Signal;HPM_P1;HPM_P2
2023/05/29 00:00:06;;;;;;;5.30;4.60;;;17.20;75.90;;;;;;6109063;23;20444;-73
2023/05/29 00:02:35;;;;;;;6.00;4.80;;;17.20;76.20;;;;;;6096502;23;20524;-74
2023/05/29 00:05:02;;;;;;;7.20;5.00;;;17.20;76.50;;;;;;6101185;23;20431;-74
2023/05/29 00:07:30;;;;;;;4.87;4.13;;;17.10;76.50;;;;;;6093623;23;20917;-74
2023/05/29 00:09:57;;;;;;;4.97;4.17;;;17.10;76.50;;;;;;6090854;23;20422;-74
2023/05/29 00:12:24;;;;;;;5.00;4.03;;;17.10;76.60;;;;;;6110924;23;20543;-74
2023/05/29 00:14:51;;;;;;;4.53;4.13;;;17.10;76.60;;;;;;6117262;23;20438;-74
2023/05/29 00:17:17;;;;;;;4.70;4.10;;;17.00;76.40;;;;;;6122126;23;20438;-75
2023/05/29 00:19:46;;;;;;;4.70;4.30;;;17.00;76.70;;;;;;6105535;23;20533;-74
2023/05/29 00:22:13;;;;;;;4.37;3.77;;;16.90;76.50;;;;;;6092365;23;20550;-74
2023/05/29 00:24:40;;;;;;;5.00;4.40;;;17.00;76.90;;;;;;6091678;23;20553;-74
2023/05/29 00:27:08;;;;;;;5.63;4.40;;;16.90;77.00;;;;;;6102057;23;20587;-74
2023/05/29 00:29:35;;;;;;;4.93;4.07;;;16.90;76.80;;;;;;6116223;23;20469;-74
2023/05/29 00:32:02;;;;;;;4.20;3.80;;;16.90;77.10;;;;;;6114505;23;20995;-74
2023/05/29 00:34:29;;;;;;;4.70;4.20;;;16.80;77.80;;;;;;6105783;23;20838;-74
2023/05/29 00:36:58;;;;;;;4.87;4.47;;;16.80;77.30;;;;;;6103113;23;20438;-74
2023/05/29 00:39:25;;;;;;;4.70;4.30;;;16.80;77.60;;;;;;6100773;23;20432;-74
2023/05/29 00:41:52;;;;;;;5.33;4.10;;;16.70;77.50;;;;;;6113974;23;20549;-74
2023/05/29 00:44:19;;;;;;;5.50;4.37;;;16.70;77.80;;;;;;6116943;23;20718;-74
2023/05/29 00:46:46;;;;;;;5.90;4.17;;;16.70;78.10;;;;;;6118931;23;20520;-75
2023/05/29 00:49:14;;;;;;;5.23;4.47;;;16.60;78.30;;;;;;6118217;23;20495;-74
2023/05/29 00:51:43;;;;;;;4.20;3.63;;;16.60;78.40;;;;;;6106294;23;20489;-74
2023/05/29 00:54:13;;;;;;;4.90;4.13;;;16.60;78.20;;;;;;6099183;23;20466;-74
2023/05/29 00:56:43;;;;;;;4.90;4.40;;;16.50;78.30;;;;;;6111152;23;20472;-74
2023/05/29 00:59:11;;;;;;;4.60;4.10;;;16.50;78.50;;;;;;6099351;23;20442;-74
2023/05/29 01:01:38;;;;;;;4.57;4.03;;;16.50;79.00;;;;;;6101730;23;20467;-75
2023/05/29 01:04:07;;;;;;;7.37;4.80;;;16.50;79.10;;;;;;6116874;23;20481;-74
2023/05/29 01:06:34;;;;;;;5.40;4.20;;;16.50;79.60;;;;;;6111790;23;20469;-74
2023/05/29 01:09:01;;;;;;;5.20;4.70;;;16.40;80.10;;;;;;6108769;23;20921;-74
2023/05/29 01:11:37;;;;;;;5.33;4.83;;;16.40;80.70;;;;;;6098260;23;20980;-75
2023/05/29 01:14:09;;;;;;;6.33;5.63;;;16.40;81.40;;;;;;6097277;23;20519;-74
2023/05/29 01:16:40;;;;;;;6.40;5.10;;;16.30;82.00;;;;;;6120097;23;20508;-75
2023/05/29 01:19:17;;;;;;;6.80;5.27;;;16.30;82.60;;;;;;6118553;23;20472;-75
2023/05/29 01:21:58;;;;;;;6.70;5.43;;;16.30;83.10;;;;;;6099288;23;20483;-75
2023/05/29 01:24:33;;;;;;;6.63;4.40;;;16.20;83.70;;;;;;6115015;23;20476;-75
2023/05/29 01:27:05;;;;;;;5.27;4.73;;;16.20;84.10;;;;;;6106989;23;20438;-75
2023/05/29 01:29:35;;;;;;;6.17;5.30;;;16.20;84.60;;;;;;6091902;23;20461;-75
2023/05/29 01:32:03;;;;;;;6.33;4.77;;;16.10;84.80;;;;;;6118216;23;20975;-75
2023/05/29 01:34:30;;;;;;;5.13;4.57;;;16.10;85.20;;;;;;6098717;23;20468;-75
2023/05/29 01:36:57;;;;;;;5.40;4.83;;;16.00;85.40;;;;;;6102116;23;20483;-74
2023/05/29 01:39:26;;;;;;;5.60;5.10;;;16.00;85.70;;;;;;6102010;23;20438;-75
2023/05/29 01:41:54;;;;;;;6.20;4.70;;;16.00;86.00;;;;;;6115519;23;20458;-75
2023/05/29 01:44:24;;;;;;;5.83;5.20;;;16.00;86.80;;;;;;6061145;22;20481;-64
2023/05/29 01:46:52;;;;;;;6.00;5.40;;;15.90;87.50;;;;;;6040444;23;21007;-64
2023/05/29 01:49:19;;;;;;;6.10;5.50;;;15.80;88.20;;;;;;6034051;23;20428;-63
2023/05/29 01:51:47;;;;;;;7.13;5.90;;;15.80;89.60;;;;;;6036665;23;20450;-64
2023/05/29 01:54:14;;;;;;;5.90;5.37;;;15.70;90.10;;;;;;6033509;23;20443;-63
2023/05/29 01:56:42;;;;;;;6.90;6.00;;;15.70;90.60;;;;;;6015395;23;20445;-65
2023/05/29 01:59:12;;;;;;;8.63;5.70;;;15.60;91.00;;;;;;6017274;23;20444;-64
2023/05/29 02:01:41;;;;;;;7.20;5.00;;;15.60;91.50;;;;;;6012198;23;21040;-63
2023/05/29 02:04:08;;;;;;;5.83;5.30;;;15.50;91.80;;;;;;6008530;23;20465;-63
2023/05/29 02:06:36;;;;;;;6.37;5.33;;;15.50;92.20;;;;;;6005558;23;20513;-63
2023/05/29 02:09:03;;;;;;;6.00;5.40;;;15.50;92.40;;;;;;6024210;23;20531;-63
2023/05/29 02:11:30;;;;;;;7.17;6.37;;;15.40;92.60;;;;;;6018327;23;20463;-63
2023/05/29 02:13:57;;;;;;;7.63;5.53;;;15.40;92.80;;;;;;6023800;23;20444;-63
2023/05/29 02:16:27;;;;;;;6.77;5.70;;;15.30;93.10;;;;;;6032060;23;20867;-64
2023/05/29 02:18:55;;;;;;;5.90;5.30;;;15.30;93.40;;;;;;6006584;23;20939;-64
2023/05/29 02:21:22;;;;;;;6.67;5.03;;;15.20;93.70;;;;;;6020284;23;20523;-63
2023/05/29 02:23:49;;;;;;;6.53;5.93;;;15.20;93.80;;;;;;6032016;23;20460;-63
2023/05/29 02:26:17;;;;;;;5.60;5.10;;;15.20;94.10;;;;;;6032508;23;20499;-63
2023/05/29 02:28:44;;;;;;;5.70;5.20;;;15.10;94.20;;;;;;6023242;23;20447;-63
2023/05/29 02:31:11;;;;;;;7.30;5.33;;;15.10;94.30;;;;;;6017210;23;20749;-63
2023/05/29 02:33:38;;;;;;;5.70;5.20;;;15.10;94.50;;;;;;6014721;23;20440;-63
2023/05/29 02:36:11;;;;;;;6.47;5.30;;;15.10;94.60;;;;;;6011972;23;20440;-63
2023/05/29 02:38:38;;;;;;;7.33;5.60;;;15.00;94.80;;;;;;6022732;23;20519;-63
2023/05/29 02:41:05;;;;;;;5.93;5.17;;;15.00;94.90;;;;;;6020242;23;20456;-63
2023/05/29 02:43:33;;;;;;;7.20;5.27;;;15.10;95.20;;;;;;6027628;23;20515;-63
2023/05/29 02:46:00;;;;;;;6.30;5.40;;;15.00;95.40;;;;;;6024263;23;20944;-63
2023/05/29 02:48:27;;;;;;;6.97;5.50;;;14.90;95.70;;;;;;6022602;23;20512;-63
2023/05/29 02:50:53;;;;;;;5.63;4.93;;;14.80;95.80;;;;;;6022944;23;20460;-63
2023/05/29 02:53:22;;;;;;;5.70;5.20;;;15.00;96.10;;;;;;6029128;23;20440;-63
2023/05/29 02:55:51;;;;;;;6.00;5.40;;;14.80;96.10;;;;;;6020072;23;21018;-63
2023/05/29 02:58:18;;;;;;;6.40;5.80;;;14.80;96.30;;;;;;6020081;23;20510;-64
2023/05/29 03:00:46;;;;;;;5.80;5.20;;;14.70;96.40;;;;;;6013696;23;20469;-63
2023/05/29 03:03:13;;;;;;;7.03;5.33;;;14.70;96.60;;;;;;6027401;23;20548;-63
2023/05/29 03:05:39;;;;;;;7.47;5.50;;;14.70;96.80;;;;;;6034008;23;20511;-63
2023/05/29 03:08:07;;;;;;;5.50;4.97;;;14.70;97.00;;;;;;6024608;23;20515;-63
2023/05/29 03:10:35;;;;;;;6.27;5.30;;;14.70;97.20;;;;;;6005580;23;20453;-64
2023/05/29 03:13:02;;;;;;;5.80;5.30;;;14.60;97.30;;;;;;6013985;23;20528;-64
2023/05/29 03:15:29;;;;;;;6.30;5.47;;;14.60;97.60;;;;;;6006666;23;20441;-64
2023/05/29 03:17:56;;;;;;;6.60;5.43;;;14.60;97.80;;;;;;6003430;23;20507;-63
2023/05/29 03:20:23;;;;;;;5.73;5.13;;;14.50;97.90;;;;;;6006601;23;20977;-65
2023/05/29 03:22:50;;;;;;;6.33;5.33;;;14.70;98.00;;;;;;6004743;23;21121;-65
2023/05/29 03:25:17;;;;;;;5.87;5.20;;;14.50;98.10;;;;;;6026942;23;20507;-65
2023/05/29 03:27:46;;;;;;;6.67;5.30;;;14.40;98.20;;;;;;6016048;23;20443;-65
2023/05/29 03:30:13;;;;;;;6.63;5.90;;;14.40;98.50;;;;;;6013639;23;20494;-65
2023/05/29 03:32:40;;;;;;;6.77;5.30;;;14.40;98.70;;;;;;6019435;23;20432;-65
2023/05/29 03:35:08;;;;;;;7.03;5.73;;;14.30;98.80;;;;;;6032155;23;20438;-65
2023/05/29 03:37:35;;;;;;;6.07;5.40;;;14.30;99.10;;;;;;6031570;23;20950;-65
2023/05/29 03:40:02;;;;;;;6.60;5.43;;;14.30;99.10;;;;;;6028895;23;20544;-65
2023/05/29 03:42:30;;;;;;;6.00;5.30;;;14.30;99.10;;;;;;6016680;23;20793;-65
2023/05/29 03:44:59;;;;;;;6.63;6.00;;;14.30;99.40;;;;;;6025334;23;20832;-65
2023/05/29 03:47:26;;;;;;;6.10;5.50;;;14.30;99.50;;;;;;6006910;23;20526;-65
2023/05/29 03:49:53;;;;;;;6.83;5.30;;;14.30;99.50;;;;;;6006997;23;20437;-65
2023/05/29 03:52:20;;;;;;;6.37;5.20;;;14.30;99.50;;;;;;6005922;23;20441;-65
2023/05/29 03:54:48;;;;;;;5.20;4.70;;;14.30;99.60;;;;;;6031654;23;21002;-65
2023/05/29 03:57:15;;;;;;;6.07;5.47;;;14.30;99.70;;;;;;6030424;23;20523;-64
2023/05/29 03:59:42;;;;;;;6.53;5.30;;;14.30;99.70;;;;;;6032096;23;21044;-64
2023/05/29 04:02:10;;;;;;;6.03;5.30;;;14.40;99.80;;;;;;6017842;23;20530;-65
2023/05/29 04:04:37;;;;;;;5.80;5.20;;;14.40;99.90;;;;;;6005142;23;20486;-65
2023/05/29 04:07:04;;;;;;;6.50;5.37;;;14.40;99.90;;;;;;6016495;23;20931;-65
2023/05/29 04:09:31;;;;;;;5.93;4.93;;;14.40;99.90;;;;;;6025168;23;20432;-65
2023/05/29 04:11:59;;;;;;;5.37;4.87;;;14.40;99.90;;;;;;6024844;23;20477;-64
2023/05/29 04:14:26;;;;;;;6.07;5.47;;;14.40;99.90;;;;;;6014140;23;20442;-65
2023/05/29 04:16:53;;;;;;;5.77;5.20;;;14.50;99.90;;;;;;6030158;23;20926;-66
2023/05/29 04:19:21;;;;;;;5.73;5.23;;;14.50;99.90;;;;;;6018128;23;20451;-65
2023/05/29 04:21:48;;;;;;;5.50;5.00;;;14.50;99.90;;;;;;6015636;23;20453;-65
2023/05/29 04:24:16;;;;;;;6.27;5.67;;;14.50;99.90;;;;;;6024176;23;20527;-65
2023/05/29 04:26:43;;;;;;;5.57;5.03;;;14.50;99.90;;;;;;6032305;23;20445;-63
2023/05/29 04:29:12;;;;;;;6.00;4.97;;;14.60;99.90;;;;;;6013437;23;20469;-63
2023/05/29 04:31:40;;;;;;;5.87;5.37;;;14.60;99.90;;;;;;6003077;23;20461;-63
2023/05/29 04:34:07;;;;;;;6.63;4.87;;;14.70;99.90;;;;;;6009165;23;20424;-64
2023/05/29 04:36:37;;;;;;;5.40;4.87;;;14.60;99.90;;;;;;6032576;23;20428;-64
2023/05/29 04:39:04;;;;;;;6.30;4.60;;;14.70;99.90;;;;;;6029866;23;20482;-62
2023/05/29 04:41:31;;;;;;;5.50;4.90;;;14.80;99.90;;;;;;6022001;23;20465;-64
2023/05/29 04:43:58;;;;;;;7.13;5.37;;;14.80;99.90;;;;;;6026626;23;20452;-64
2023/05/29 04:46:25;;;;;;;5.50;4.20;;;14.90;99.90;;;;;;6015771;23;20510;-64
2023/05/29 04:48:53;;;;;;;4.93;4.43;;;14.90;99.90;;;;;;6012899;23;20439;-64
2023/05/29 04:51:21;;;;;;;4.57;4.17;;;15.00;99.90;;;;;;6015094;23;20461;-64
2023/05/29 04:53:49;;;;;;;6.93;4.90;;;15.00;99.90;;;;;;6003977;23;20425;-64
2023/05/29 04:56:16;;;;;;;5.17;4.67;;;15.10;99.90;;;;;;6012756;23;20463;-64
2023/05/29 04:58:44;;;;;;;7.73;4.80;;;15.20;99.80;;;;;;6019964;23;20427;-64
2023/05/29 05:01:14;;;;;;;5.70;4.30;;;15.20;99.50;;;;;;6018394;23;20463;-65
2023/05/29 05:03:41;;;;;;;4.67;4.17;;;15.40;99.20;;;;;;6016885;23;20448;-65
2023/05/29 05:06:09;;;;;;;5.67;4.27;;;15.40;98.90;;;;;;6020563;23;20479;-66
2023/05/29 05:08:36;;;;;;;5.70;4.07;;;15.50;98.50;;;;;;6028020;23;20436;-66
2023/05/29 05:11:06;;;;;;;5.90;4.47;;;15.60;98.40;;;;;;6025516;23;20460;-66
2023/05/29 05:13:33;;;;;;;4.63;4.20;;;15.70;98.30;;;;;;6030906;23;21007;-67
2023/05/29 05:16:00;;;;;;;4.97;4.47;;;15.80;98.00;;;;;;6032966;23;20929;-67
2023/05/29 05:18:27;;;;;;;4.67;4.10;;;15.90;97.80;;;;;;6030520;23;20523;-67
2023/05/29 05:20:54;;;;;;;5.93;4.93;;;16.00;97.70;;;;;;6018805;23;20463;-65
2023/05/29 05:23:21;;;;;;;4.53;4.13;;;16.10;97.40;;;;;;6025014;23;20464;-65
2023/05/29 05:25:48;;;;;;;5.90;4.73;;;16.40;97.40;;;;;;6026538;23;20507;-65
2023/05/29 05:28:16;;;;;;;5.13;4.37;;;16.30;97.00;;;;;;6017173;23;20840;-65
2023/05/29 05:30:43;;;;;;;4.57;4.17;;;16.30;96.70;;;;;;6030912;23;20497;-65
2023/05/29 05:33:10;;;;;;;6.37;4.30;;;16.40;96.50;;;;;;6032869;23;20440;-65
2023/05/29 05:35:38;;;;;;;5.43;4.60;;;16.50;96.40;;;;;;6005935;23;20505;-65
2023/05/29 05:38:05;;;;;;;5.07;4.37;;;16.60;96.30;;;;;;6016310;23;20504;-65
2023/05/29 05:40:31;;;;;;;6.47;5.00;;;16.70;96.20;;;;;;6030928;23;20506;-66
2023/05/29 05:42:59;;;;;;;5.30;4.80;;;16.80;96.10;;;;;;6033698;23;20489;-65
2023/05/29 05:45:27;;;;;;;5.37;4.50;;;16.90;95.80;;;;;;6033100;23;20467;-65
2023/05/29 05:47:54;;;;;;;6.20;4.80;;;16.90;95.60;;;;;;6032636;23;20440;-65
2023/05/29 05:50:21;;;;;;;6.17;4.53;;;17.10;95.50;;;;;;6020463;23;20898;-65
2023/05/29 05:52:48;;;;;;;5.40;4.20;;;17.10;95.20;;;;;;6008745;23;20441;-65
2023/05/29 05:55:16;;;;;;;5.60;4.70;;;17.20;95.30;;;;;;6015309;23;20513;-65
2023/05/29 05:57:43;;;;;;;5.57;5.07;;;17.30;95.30;;;;;;6019440;23;20464;-65
2023/05/29 06:00:12;;;;;;;7.53;5.20;;;17.40;95.40;;;;;;6020087;23;20440;-65
2023/05/29 06:02:42;;;;;;;7.13;5.23;;;17.40;95.70;;;;;;6022680;23;20433;-65
2023/05/29 06:05:09;;;;;;;7.17;4.90;;;17.40;95.80;;;;;;6022628;23;20464;-65
2023/05/29 06:07:36;;;;;;;4.83;4.33;;;17.50;96.00;;;;;;6011420;23;20516;-65
2023/05/29 06:10:04;;;;;;;7.13;5.27;;;17.50;95.60;;;;;;6030424;23;20467;-65
2023/05/29 06:12:31;;;;;;;5.13;4.53;;;17.40;95.20;;;;;;6024652;23;20439;-66
2023/05/29 06:14:58;;;;;;;5.00;4.50;;;17.40;95.00;;;;;;6004416;23;20499;-66
2023/05/29 06:17:26;;;;;;;7.93;4.80;;;17.40;95.10;;;;;;6009019;23;20635;-65
2023/05/29 06:19:55;;;;;;;4.50;4.10;;;17.50;95.10;;;;;;6005259;23;20522;-66
2023/05/29 06:22:22;;;;;;;4.40;4.00;;;17.50;95.30;;;;;;6006812;23;20455;-66
2023/05/29 06:24:49;;;;;;;4.93;4.50;;;17.60;95.40;;;;;;6010048;23;20451;-65
2023/05/29 06:27:17;;;;;;;5.40;4.90;;;17.70;95.50;;;;;;6017102;23;20472;-66
2023/05/29 06:29:44;;;;;;;5.47;4.97;;;17.70;95.30;;;;;;6011592;23;20463;-65
2023/05/29 06:32:11;;;;;;;5.73;5.20;;;17.80;95.50;;;;;;6012648;23;20437;-65
2023/05/29 06:34:38;;;;;;;5.60;4.50;;;17.80;95.60;;;;;;6017619;23;20473;-65
2023/05/29 06:37:07;;;;;;;5.33;4.77;;;17.90;95.60;;;;;;6025504;23;20472;-65
2023/05/29 06:39:34;;;;;;;5.00;4.50;;;18.00;95.60;;;;;;6021922;23;20987;-65
2023/05/29 06:42:02;;;;;;;5.87;5.37;;;18.10;95.40;;;;;;6032018;23;20443;-65
2023/05/29 06:44:29;;;;;;;5.50;5.00;;;18.20;95.30;;;;;;6018991;23;20448;-65
2023/05/29 06:46:55;;;;;;;5.23;4.83;;;18.30;95.60;;;;;;6022747;23;20798;-65
2023/05/29 06:49:23;;;;;;;6.83;4.40;;;18.40;95.50;;;;;;6004359;23;20520;-65
2023/05/29 06:51:50;;;;;;;5.33;4.70;;;18.40;95.50;;;;;;6014577;23;22049;-65
2023/05/29 06:54:18;;;;;;;5.30;4.60;;;18.50;94.90;;;;;;6026611;23;20444;-65
2023/05/29 06:56:45;;;;;;;5.20;4.70;;;18.60;94.80;;;;;;6022339;23;20541;-66
2023/05/29 06:59:12;;;;;;;6.77;4.50;;;18.60;94.80;;;;;;6011921;23;20469;-66
2023/05/29 07:01:39;;;;;;;6.03;4.73;;;18.70;94.70;;;;;;6011633;23;20521;-66
2023/05/29 07:04:07;;;;;;;5.67;4.50;;;18.90;94.50;;;;;;6027269;23;20591;-67
2023/05/29 07:06:35;;;;;;;5.20;4.70;;;19.00;94.40;;;;;;6030465;23;20470;-66
2023/05/29 07:09:02;;;;;;;4.90;4.40;;;19.10;94.20;;;;;;6019817;23;20443;-66
2023/05/29 07:11:31;;;;;;;5.60;4.43;;;19.20;94.30;;;;;;6018991;23;20558;-66
2023/05/29 07:13:57;;;;;;;4.43;3.90;;;19.40;94.30;;;;;;6021545;23;20994;-66
2023/05/29 07:16:25;;;;;;;5.30;4.37;;;19.50;94.00;;;;;;6016835;23;20440;-66
2023/05/29 07:18:52;;;;;;;4.73;4.33;;;19.70;93.50;;;;;;6016490;23;20454;-66
2023/05/29 07:21:20;;;;;;;4.80;4.40;;;19.70;93.10;;;;;;6017996;23;20552;-66
2023/05/29 07:23:47;;;;;;;4.83;4.33;;;19.90;93.00;;;;;;6018824;23;20447;-66
2023/05/29 07:26:14;;;;;;;5.17;4.67;;;20.00;92.90;;;;;;6020245;23;20513;-65
2023/05/29 07:28:42;;;;;;;5.13;4.73;;;20.20;93.00;;;;;;6013198;23;20443;-66
2023/05/29 07:31:09;;;;;;;5.10;4.67;;;20.50;92.80;;;;;;6015953;23;20468;-66
2023/05/29 07:33:36;;;;;;;4.70;4.30;;;20.80;92.40;;;;;;6002120;23;20448;-66
2023/05/29 07:36:04;;;;;;;5.00;4.10;;;21.10;91.80;;;;;;6010053;23;20452;-66
2023/05/29 07:38:30;;;;;;;4.60;4.20;;;21.30;91.40;;;;;;6017439;23;20460;-65
2023/05/29 07:40:58;;;;;;;5.70;4.43;;;21.70;91.00;;;;;;6016739;23;20468;-66
2023/05/29 07:43:25;;;;;;;4.40;4.00;;;22.10;90.30;;;;;;5999409;23;20521;-66
2023/05/29 07:45:53;;;;;;;4.50;4.10;;;22.50;88.80;;;;;;6009047;23;20569;-67
2023/05/29 07:48:20;;;;;;;4.90;4.20;;;22.90;87.70;;;;;;6012811;23;20446;-66
2023/05/29 07:50:48;;;;;;;5.00;4.60;;;23.40;85.80;;;;;;6012256;23;20457;-66
2023/05/29 07:53:15;;;;;;;5.10;4.60;;;23.70;84.80;;;;;;6002483;23;20445;-66
2023/05/29 07:55:42;;;;;;;4.63;4.17;;;24.00;83.30;;;;;;6014434;23;20444;-66
2023/05/29 07:58:11;;;;;;;4.53;4.23;;;24.40;82.50;;;;;;6014136;23;20432;-67
2023/05/29 08:00:38;;;;;;;4.70;4.20;;;24.70;80.70;;;;;;6013079;23;20514;-61
2023/05/29 08:03:08;;;;;;;4.47;3.90;;;25.00;78.30;;;;;;6026768;23;20494;-62
2023/05/29 08:05:35;;;;;;;4.40;4.07;;;25.20;76.60;;;;;;6026856;23;20464;-62
2023/05/29 08:08:02;;;;;;;4.70;4.30;;;25.40;76.60;;;;;;6022391;23;20486;-62
2023/05/29 08:10:29;;;;;;;4.10;3.80;;;25.60;76.30;;;;;;6010056;23;20492;-63
2023/05/29 08:12:56;;;;;;;6.67;4.63;;;25.80;75.80;;;;;;6028217;23;20489;-63
2023/05/29 08:15:24;;;;;;;5.93;5.00;;;25.90;74.60;;;;;;6014119;23;20455;-63
2023/05/29 08:17:51;;;;;;;4.50;3.70;;;25.90;73.80;;;;;;6025618;23;20795;-62
2023/05/29 08:20:20;;;;;;;4.77;4.40;;;25.90;74.80;;;;;;6019348;23;20882;-62
2023/05/29 08:22:47;;;;;;;4.80;4.40;;;26.10;74.20;;;;;;6028724;23;20491;-62
2023/05/29 08:25:14;;;;;;;4.67;4.20;;;26.20;74.10;;;;;;6021072;23;20491;-62
2023/05/29 08:27:41;;;;;;;4.53;4.00;;;26.30;73.90;;;;;;6030170;23;20468;-62
2023/05/29 08:30:09;;;;;;;4.50;4.10;;;26.50;73.90;;;;;;6015645;23;20459;-63
2023/05/29 08:32:36;;;;;;;5.10;4.70;;;26.60;72.00;;;;;;6022765;23;20550;-63
2023/05/29 08:35:04;;;;;;;4.93;4.50;;;26.70;71.10;;;;;;6024842;23;20444;-63
2023/05/29 08:37:33;;;;;;;4.97;4.57;;;26.80;71.30;;;;;;6029865;23;20448;-63
2023/05/29 08:40:00;;;;;;;4.60;4.00;;;26.90;71.40;;;;;;6021218;23;20460;-63
2023/05/29 08:42:33;;;;;;;5.03;4.53;;;27.00;71.80;;;;;;6029003;23;20432;-62
2023/05/29 08:45:03;;;;;;;4.80;4.30;;;27.20;71.50;;;;;;6028684;23;20452;-63
2023/05/29 08:47:34;;;;;;;4.43;4.03;;;27.30;70.80;;;;;;6029482;23;20836;-63
2023/05/29 08:50:02;;;;;;;4.57;4.23;;;27.50;70.30;;;;;;6028693;23;21047;-63
2023/05/29 08:52:35;;;;;;;5.57;4.40;;;27.60;69.90;;;;;;6032684;23;20431;-62
2023/05/29 08:55:04;;;;;;;4.67;4.27;;;27.90;69.40;;;;;;6021545;23;20440;-63
2023/05/29 08:57:31;;;;;;;5.97;4.63;;;28.10;68.30;;;;;;6009782;23;20481;-63
2023/05/29 08:59:59;;;;;;;4.47;4.10;;;28.30;68.30;;;;;;6019949;23;20508;-63
2023/05/29 09:02:27;;;;;;;4.20;3.70;;;28.40;67.40;;;;;;6006981;23;20487;-63
2023/05/29 09:04:54;;;;;;;4.60;4.20;;;28.50;67.50;;;;;;6017411;23;20440;-63
2023/05/29 09:07:22;;;;;;;4.00;3.70;;;28.70;67.50;;;;;;6009042;23;20476;-63
2023/05/29 09:09:50;;;;;;;4.17;3.77;;;29.00;66.70;;;;;;6014343;23;20601;-63
2023/05/29 09:12:18;;;;;;;5.00;4.60;;;29.10;65.90;;;;;;6017882;23;20433;-63
2023/05/29 09:14:46;;;;;;;4.63;4.23;;;29.30;65.30;;;;;;6008741;23;20514;-62
2023/05/29 09:17:15;;;;;;;4.67;4.27;;;29.40;65.90;;;;;;6013309;23;20447;-62
2023/05/29 09:19:42;;;;;;;4.47;4.07;;;29.50;65.40;;;;;;6017187;23;20459;-62
2023/05/29 09:22:11;;;;;;;4.53;4.13;;;29.70;65.50;;;;;;6018812;23;20474;-62
2023/05/29 09:24:39;;;;;;;7.40;4.20;;;29.80;64.60;;;;;;6015101;23;20436;-62
2023/05/29 09:27:07;;;;;;;5.47;4.97;;;29.90;63.50;;;;;;6017384;23;20468;-62
2023/05/29 09:29:39;;;;;;;4.70;4.30;;;29.90;61.80;;;;;;6018153;23;20569;-62
2023/05/29 09:32:08;;;;;;;4.80;4.40;;;29.80;63.30;;;;;;6016248;23;20812;-62
2023/05/29 09:34:35;;;;;;;5.30;4.60;;;29.80;60.60;;;;;;6027598;23;20808;-62
2023/05/29 09:37:08;;;;;;;5.27;4.87;;;29.10;62.70;;;;;;6027013;23;20527;-63
2023/05/29 09:39:46;;;;;;;4.60;4.30;;;29.00;63.10;;;;;;6011636;23;20475;-62
2023/05/29 09:42:13;;;;;;;4.43;4.03;;;29.20;64.20;;;;;;6016852;23;20439;-62
2023/05/29 09:44:42;;;;;;;5.17;4.60;;;29.40;64.60;;;;;;6023609;23;21042;-62
2023/05/29 09:47:10;;;;;;;5.13;4.63;;;29.60;64.20;;;;;;6025853;23;20472;-62
2023/05/29 09:49:42;;;;;;;3.90;3.60;;;29.70;63.60;;;;;;6030090;23;20452;-63
2023/05/29 09:52:09;;;;;;;4.43;4.10;;;30.10;60.70;;;;;;6019459;23;20547;-62
2023/05/29 09:54:37;;;;;;;4.40;4.10;;;30.10;59.80;;;;;;6012266;23;20449;-62
2023/05/29 09:57:06;;;;;;;5.57;4.20;;;30.40;58.40;;;;;;6004977;23;20437;-62
2023/05/29 09:59:35;;;;;;;4.43;4.03;;;30.60;55.60;;;;;;6001398;23;20468;-62
2023/05/29 10:02:06;;;;;;;4.43;4.03;;;30.50;56.80;;;;;;6010923;23;20448;-62
2023/05/29 10:04:34;;;;;;;4.90;4.47;;;30.60;55.90;;;;;;6015428;23;20522;-77
2023/05/29 10:07:06;;;;;;;4.40;3.97;;;30.80;55.80;;;;;;6016373;23;20556;-63
2023/05/29 10:09:35;;;;;;;4.03;3.73;;;30.90;55.00;;;;;;6004764;23;20457;-63
2023/05/29 10:12:07;;;;;;;5.10;4.10;;;31.00;55.00;;;;;;6016041;23;20447;-63
2023/05/29 10:14:35;;;;;;;4.23;3.83;;;31.20;54.40;;;;;;6010038;23;20437;-63
2023/05/29 10:17:07;;;;;;;4.57;4.10;;;31.30;53.50;;;;;;6015652;23;20452;-63
2023/05/29 10:19:38;;;;;;;4.90;4.40;;;31.50;53.10;;;;;;6019511;23;20476;-63
2023/05/29 10:22:06;;;;;;;4.60;4.03;;;31.40;52.80;;;;;;6007431;23;20527;-64
2023/05/29 10:24:35;;;;;;;4.70;4.30;;;30.60;52.70;;;;;;6006207;23;20437;-63
2023/05/29 10:27:03;;;;;;;5.03;4.63;;;29.70;53.90;;;;;;6007611;23;20467;-64
2023/05/29 10:29:35;;;;;;;4.17;3.80;;;29.10;56.00;;;;;;6006230;23;20500;-65
2023/05/29 10:32:09;;;;;;;4.03;3.63;;;29.50;56.00;;;;;;6010382;23;20527;-64
2023/05/29 10:34:43;;;;;;;4.10;3.50;;;29.80;53.60;;;;;;6011249;23;20444;-64
2023/05/29 10:37:19;;;;;;;4.93;3.70;;;30.10;52.30;;;;;;6009686;23;20511;-65
2023/05/29 10:39:46;;;;;;;4.43;4.03;;;30.50;52.70;;;;;;6009768;23;20460;-64
2023/05/29 10:42:41;;;;;;;3.83;3.53;;;30.80;52.40;;;;;;6011943;23;20924;-64
2023/05/29 10:45:09;;;;;;;4.30;3.27;;;30.30;51.80;;;;;;6009611;23;20531;-63
2023/05/29 10:47:37;;;;;;;4.20;3.80;;;29.70;53.20;;;;;;6025648;23;20828;-63
2023/05/29 10:50:05;;;;;;;4.50;4.10;;;29.20;54.00;;;;;;6031201;23;20491;-63
2023/05/29 10:52:32;;;;;;;6.20;3.50;;;29.30;54.50;;;;;;6030741;23;20444;-63
2023/05/29 10:55:03;;;;;;;4.53;4.13;;;29.50;53.10;;;;;;6029600;23;20451;-63
2023/05/29 10:57:35;;;;;;;4.80;3.77;;;29.00;53.50;;;;;;6031073;23;20440;-63
2023/05/29 12:41:26;;;;;;;3.57;3.27;;;33.10;40.70;;;;;;6144823;23;21062;-63
2023/05/29 12:43:54;;;;;;;3.70;3.40;;;33.30;41.10;;;;;;6139418;23;20421;-64
2023/05/29 12:46:22;;;;;;;4.10;3.80;;;33.20;41.30;;;;;;6122219;23;20428;-65
2023/05/29 12:48:49;;;;;;;3.77;3.47;;;33.50;41.30;;;;;;6117385;23;20566;-63
2023/05/29 12:51:18;;;;;;;3.60;3.30;;;33.50;40.70;;;;;;6113348;23;20465;-63
2023/05/29 12:53:45;;;;;;;3.80;3.50;;;33.80;40.20;;;;;;6107351;23;20436;-64
2023/05/29 12:56:12;;;;;;;5.60;3.70;;;34.10;41.00;;;;;;6125022;23;20460;-63
2023/05/29 12:58:41;;;;;;;3.20;3.00;;;34.60;40.60;;;;;;6104887;23;20536;-63
2023/05/29 13:01:14;;;;;;;3.60;3.30;;;35.20;40.30;;;;;;6119171;23;20492;-62
2023/05/29 13:03:42;;;;;;;7.50;3.83;;;35.50;39.40;;;;;;6110674;23;20516;-63
2023/05/29 13:06:09;;;;;;;5.27;4.20;;;35.90;38.30;;;;;;6125098;23;20496;-64
2023/05/29 13:08:36;;;;;;;4.10;3.77;;;36.20;38.70;;;;;;6111833;23;20448;-64
2023/05/29 13:11:03;;;;;;;3.67;3.33;;;36.50;37.80;;;;;;6124799;23;20444;-63
2023/05/29 13:13:30;;;;;;;3.37;3.10;;;37.10;38.10;;;;;;6123062;23;20516;-64
2023/05/29 13:15:58;;;;;;;4.10;3.40;;;37.40;37.10;;;;;;6120546;23;20429;-64
2023/05/29 13:18:25;;;;;;;3.77;3.50;;;38.00;36.60;;;;;;6114677;23;20460;-64
2023/05/29 13:20:52;;;;;;;4.43;3.00;;;38.40;36.70;;;;;;6112941;23;20894;-63
2023/05/29 13:23:19;;;;;;;6.60;3.97;;;37.70;36.20;;;;;;6103552;23;20468;-63
2023/05/29 13:25:49;;;;;;;3.67;3.30;;;37.00;36.70;;;;;;6121650;23;20485;-63
2023/05/29 13:28:16;;;;;;;4.00;3.70;;;37.00;37.50;;;;;;6117451;23;20948;-63
2023/05/29 13:30:43;;;;;;;3.73;3.43;;;37.60;36.80;;;;;;6124200;23;20421;-64
2023/05/29 13:33:12;;;;;;;3.60;3.30;;;38.30;36.20;;;;;;6109975;23;20504;-63
2023/05/29 13:35:38;;;;;;;3.83;3.53;;;38.50;36.00;;;;;;6104819;23;20990;-64
2023/05/29 13:38:05;;;;;;;3.80;3.50;;;38.70;35.70;;;;;;6122715;23;20445;-63
2023/05/29 13:40:33;;;;;;;3.40;3.20;;;39.30;35.40;;;;;;6114570;23;20469;-63
2023/05/29 13:43:00;;;;;;;3.60;3.40;;;39.60;34.50;;;;;;6116983;23;20460;-63
2023/05/29 13:45:27;;;;;;;3.63;3.43;;;38.80;35.20;;;;;;6123065;23;20457;-63
2023/05/29 13:47:55;;;;;;;3.60;3.30;;;38.50;35.20;;;;;;6124509;23;20429;-63
2023/05/29 13:50:24;;;;;;;3.40;3.20;;;38.70;35.20;;;;;;6124380;23;20453;-64
2023/05/29 13:52:51;;;;;;;3.50;3.17;;;39.00;35.10;;;;;;6116384;23;20956;-64
2023/05/29 13:55:18;;;;;;;3.50;3.30;;;38.70;35.10;;;;;;6094281;23;20438;-64
2023/05/29 13:57:45;;;;;;;3.60;3.30;;;38.80;34.90;;;;;;6093429;23;20448;-63
2023/05/29 14:00:13;;;;;;;3.67;3.47;;;38.60;35.00;;;;;;6103675;23;20948;-63
2023/05/29 14:02:40;;;;;;;5.60;4.03;;;37.50;35.60;;;;;;6099819;23;20441;-63
2023/05/29 14:05:09;;;;;;;3.77;3.40;;;37.40;36.20;;;;;;6105527;23;20890;-64
2023/05/29 14:07:37;;;;;;;3.90;3.50;;;37.60;36.20;;;;;;6106677;23;20438;-63
2023/05/29 14:10:06;;;;;;;3.67;3.37;;;38.00;36.30;;;;;;6108173;23;20457;-63
2023/05/29 14:12:33;;;;;;;3.77;3.47;;;38.50;35.60;;;;;;6111073;23;20426;-63
2023/05/29 14:15:00;;;;;;;3.80;3.50;;;38.70;35.20;;;;;;6115311;23;20441;-63
2023/05/29 14:17:28;;;;;;;4.13;3.37;;;38.40;35.50;;;;;;6111679;23;20817;-62
2023/05/29 14:19:55;;;;;;;3.53;3.33;;;38.60;35.20;;;;;;6099218;23;20469;-63
2023/05/29 14:22:22;;;;;;;3.37;3.17;;;38.70;35.00;;;;;;6111321;23;20520;-62
2023/05/29 14:24:51;;;;;;;3.63;3.23;;;39.00;35.10;;;;;;6103500;23;20944;-72
2023/05/29 14:27:18;;;;;;;3.53;3.23;;;39.10;35.10;;;;;;6104280;23;20442;-71
2023/05/29 14:29:45;;;;;;;3.20;3.00;;;39.20;34.80;;;;;;6110144;23;20462;-71
2023/05/29 14:32:13;;;;;;;3.97;3.57;;;39.10;35.00;;;;;;6110074;23;20433;-63